Time;durP1;ratioP1;P1;durP2;ratioP2;P2;SDS_P1;SDS_P2;PMS_P1;PMS_P2;Temp;Humidity;BMP_temperature;BMP_pressure;BME280_temperature;BME280_humidity;BME280_pressure;Samples;Min_cycle;Max_cycle;Signal;HPM_P1;HPM_P2
2023/08/12 00:02:12;;;;;;;8.98;2.72;;;19.90;82.80;;;;;;5133180;27;20019;-67
2023/08/12 00:04:38;;;;;;;6.28;2.85;;;19.90;83.00;;;;;;5133411;27;20479;-67
2023/08/12 00:07:03;;;;;;;5.10;2.58;;;19.80;83.00;;;;;;5133470;27;20070;-67
2023/08/12 00:09:29;;;;;;;6.10;2.55;;;19.80;83.00;;;;;;5133306;27;20405;-67
2023/08/12 00:11:54;;;;;;;4.70;2.50;;;19.80;83.10;;;;;;5115256;28;20031;-67
2023/08/12 00:14:20;;;;;;;6.05;2.90;;;19.80;83.00;;;;;;5133324;28;20067;-67
2023/08/12 00:16:46;;;;;;;6.20;2.88;;;19.80;83.10;;;;;;5133579;27;20114;-67
2023/08/12 00:19:11;;;;;;;6.85;3.00;;;19.80;83.20;;;;;;5133345;28;20461;-74
2023/08/12 00:21:37;;;;;;;4.00;2.90;;;19.70;83.60;;;;;;5133656;28;20023;-66
2023/08/12 00:24:03;;;;;;;4.43;3.15;;;19.70;84.30;;;;;;5133298;28;20478;-67
2023/08/12 00:26:28;;;;;;;5.03;3.05;;;19.70;84.30;;;;;;5133997;27;20108;-67
2023/08/12 00:28:54;;;;;;;5.97;3.00;;;19.60;84.60;;;;;;5137876;27;20023;-67
2023/08/12 00:31:19;;;;;;;4.18;2.83;;;19.60;85.00;;;;;;5137410;27;20027;-67
2023/08/12 00:33:45;;;;;;;6.32;2.92;;;19.60;85.50;;;;;;5137890;27;20019;-67
2023/08/12 00:36:11;;;;;;;5.53;2.95;;;19.50;85.60;;;;;;5137932;27;20467;-67
2023/08/12 00:38:36;;;;;;;5.50;3.10;;;19.50;85.70;;;;;;5137124;27;20030;-67
2023/08/12 00:41:03;;;;;;;4.28;2.83;;;19.50;86.30;;;;;;5137703;27;20065;-67
2023/08/12 00:43:29;;;;;;;3.50;2.92;;;19.40;87.20;;;;;;5137406;27;20035;-67
2023/08/12 00:45:54;;;;;;;4.38;3.30;;;19.40;87.30;;;;;;5137941;27;20094;-67
2023/08/12 00:48:20;;;;;;;5.25;3.10;;;19.40;88.10;;;;;;5137231;27;20391;-67
2023/08/12 00:50:46;;;;;;;3.83;2.92;;;19.30;88.80;;;;;;5137242;27;20047;-67
2023/08/12 00:53:14;;;;;;;5.95;3.20;;;19.20;89.20;;;;;;5119234;27;20605;-67
2023/08/12 00:55:40;;;;;;;4.40;2.60;;;19.20;89.50;;;;;;5137640;27;20106;-67
2023/08/12 00:58:06;;;;;;;4.13;2.47;;;19.20;89.50;;;;;;5136860;27;20054;-67
2023/08/12 01:00:33;;;;;;;4.72;2.85;;;19.20;89.60;;;;;;5118670;27;20476;-67
2023/08/12 01:03:00;;;;;;;6.22;2.70;;;19.10;90.00;;;;;;5137624;27;20398;-67
2023/08/12 01:05:26;;;;;;;4.97;2.90;;;19.10;90.20;;;;;;5136631;27;20031;-67
2023/08/12 01:07:53;;;;;;;3.25;2.55;;;19.10;90.10;;;;;;5137232;27;20027;-67
2023/08/12 01:10:20;;;;;;;4.85;2.70;;;19.00;90.00;;;;;;5136702;27;20424;-67
2023/08/12 01:13:29;;;;;;;4.07;2.90;;;19.00;89.70;;;;;;5137207;27;20019;-67
2023/08/12 01:16:00;;;;;;;4.53;2.25;;;19.00;90.00;;;;;;5127115;27;20390;-67
2023/08/12 01:18:27;;;;;;;4.05;2.40;;;18.90;90.00;;;;;;5118987;27;20034;-67
2023/08/12 01:20:53;;;;;;;6.32;2.78;;;18.90;90.00;;;;;;5116180;28;20095;-67
2023/08/12 01:23:20;;;;;;;5.32;2.25;;;18.90;90.00;;;;;;5115750;28;20043;-67
2023/08/12 01:25:46;;;;;;;3.55;2.55;;;18.90;90.10;;;;;;5116313;28;20051;-67
2023/08/12 01:28:11;;;;;;;4.07;2.15;;;18.90;90.30;;;;;;5116257;28;20471;-67
2023/08/12 01:30:46;;;;;;;5.00;2.08;;;18.90;90.30;;;;;;5115812;28;20023;-67
2023/08/12 01:33:24;;;;;;;6.78;2.08;;;19.00;90.10;;;;;;5116254;28;20026;-67
2023/08/12 01:36:06;;;;;;;2.55;2.00;;;18.90;89.90;;;;;;5115941;28;20055;-67
2023/08/12 01:38:33;;;;;;;3.47;2.10;;;18.90;90.00;;;;;;5114607;28;20028;-65
2023/08/12 01:41:00;;;;;;;3.20;2.35;;;18.90;90.10;;;;;;5115808;28;20069;-65
2023/08/12 01:43:26;;;;;;;2.95;2.42;;;18.80;90.20;;;;;;5115713;28;20023;-66
2023/08/12 01:45:51;;;;;;;2.90;2.33;;;18.80;90.40;;;;;;5115744;28;20062;-66
2023/08/12 01:48:19;;;;;;;3.63;2.42;;;18.70;90.70;;;;;;5115891;28;20024;-67
2023/08/12 01:50:47;;;;;;;2.67;2.30;;;18.70;90.50;;;;;;5115274;28;20055;-67
2023/08/12 01:53:13;;;;;;;5.28;2.45;;;18.70;90.80;;;;;;5115752;28;20036;-66
2023/08/12 01:55:39;;;;;;;3.65;2.50;;;18.70;91.00;;;;;;5115181;28;20096;-67
2023/08/12 01:58:04;;;;;;;3.17;2.40;;;18.60;91.10;;;;;;5115633;28;20035;-65
2023/08/12 02:00:30;;;;;;;3.40;2.25;;;18.60;91.30;;;;;;5115393;28;20410;-67
2023/08/12 02:02:55;;;;;;;3.40;2.60;;;18.60;91.60;;;;;;5115392;28;20027;-67
2023/08/12 02:05:21;;;;;;;4.50;2.90;;;18.50;91.60;;;;;;5115236;28;20057;-68
2023/08/12 02:07:46;;;;;;;5.32;2.50;;;18.50;91.90;;;;;;5115579;28;20028;-67
2023/08/12 02:10:14;;;;;;;3.58;2.40;;;18.50;92.00;;;;;;5115806;28;20100;-65
2023/08/12 02:12:40;;;;;;;3.78;2.78;;;18.50;91.70;;;;;;5115171;28;20054;-66
2023/08/12 02:15:06;;;;;;;4.80;2.58;;;18.50;91.90;;;;;;5115476;28;20027;-67
2023/08/12 02:17:31;;;;;;;2.92;2.28;;;18.40;91.90;;;;;;5114963;28;20043;-66
2023/08/12 02:19:57;;;;;;;3.20;2.78;;;18.40;92.10;;;;;;5115344;28;20020;-67
2023/08/12 02:22:23;;;;;;;5.40;2.92;;;18.40;92.20;;;;;;5114893;28;20468;-67
2023/08/12 02:24:48;;;;;;;6.60;2.92;;;18.40;92.50;;;;;;5115354;28;20028;-67
2023/08/12 02:27:14;;;;;;;4.68;2.42;;;18.30;92.80;;;;;;5115145;28;20539;-67
2023/08/12 02:29:40;;;;;;;3.83;2.85;;;18.30;92.90;;;;;;5123255;27;20019;-67
2023/08/12 02:32:05;;;;;;;3.47;2.53;;;18.30;92.80;;;;;;5135352;27;20102;-67
2023/08/12 02:34:31;;;;;;;4.97;2.92;;;18.30;92.80;;;;;;5135175;27;20387;-67
2023/08/12 02:36:56;;;;;;;6.20;3.22;;;18.30;93.00;;;;;;5135199;27;20034;-67
2023/08/12 02:39:22;;;;;;;3.47;3.05;;;18.30;93.20;;;;;;5135201;27;20552;-68
2023/08/12 02:41:48;;;;;;;3.03;2.60;;;18.30;93.40;;;;;;5135468;27;20019;-67
2023/08/12 02:44:14;;;;;;;3.03;2.72;;;18.20;93.60;;;;;;5135367;27;20019;-67
2023/08/12 02:46:40;;;;;;;7.22;2.78;;;18.20;93.70;;;;;;5116574;27;20505;-67
2023/08/12 02:49:05;;;;;;;6.38;3.22;;;18.20;94.00;;;;;;5134705;27;20039;-67
2023/08/12 02:51:31;;;;;;;5.75;3.00;;;18.20;94.00;;;;;;5135006;27;20074;-67
2023/08/12 02:53:56;;;;;;;3.53;3.10;;;18.20;94.10;;;;;;5135245;27;20046;-67
2023/08/12 02:56:22;;;;;;;5.05;3.13;;;18.20;94.60;;;;;;5135174;27;20079;-67
2023/08/12 02:58:48;;;;;;;4.30;3.28;;;18.20;94.40;;;;;;5135489;27;20398;-65
2023/08/12 03:01:13;;;;;;;5.82;3.15;;;18.20;94.60;;;;;;5134348;27;20016;-67
2023/08/12 03:03:39;;;;;;;6.13;3.10;;;18.20;94.70;;;;;;5134659;27;20029;-65
2023/08/12 03:06:05;;;;;;;4.22;3.15;;;18.20;95.00;;;;;;5134942;27;20029;-68
2023/08/12 03:08:31;;;;;;;6.45;3.30;;;18.20;94.80;;;;;;5134241;27;20052;-67
2023/08/12 03:11:00;;;;;;;5.95;3.47;;;18.20;94.80;;;;;;5135221;27;20023;-66
2023/08/12 03:13:27;;;;;;;4.53;2.95;;;18.20;95.20;;;;;;5134197;27;20023;-67
2023/08/12 03:15:52;;;;;;;6.57;3.40;;;18.20;95.00;;;;;;5112061;28;20103;-67
2023/08/12 03:18:18;;;;;;;5.20;2.97;;;18.20;95.10;;;;;;5116322;28;20051;-67
2023/08/12 03:20:43;;;;;;;6.88;3.45;;;18.20;95.20;;;;;;5116039;28;20059;-67
2023/08/12 03:23:09;;;;;;;4.30;3.28;;;18.20;95.50;;;;;;5116429;28;20353;-67
2023/08/12 03:25:35;;;;;;;6.70;3.38;;;18.10;95.30;;;;;;5115142;28;20023;-67
2023/08/12 03:28:00;;;;;;;6.18;3.50;;;18.10;95.30;;;;;;5114232;28;20391;-67
2023/08/12 03:30:26;;;;;;;4.47;3.35;;;18.10;95.50;;;;;;5113742;28;20055;-67
2023/08/12 03:32:52;;;;;;;3.97;3.22;;;18.10;95.80;;;;;;5114074;28;20107;-66
2023/08/12 03:35:18;;;;;;;4.32;3.17;;;18.10;95.80;;;;;;5113948;28;20448;-66
2023/08/12 03:37:44;;;;;;;8.35;3.40;;;18.10;96.00;;;;;;5113359;28;20123;-66
2023/08/12 03:40:10;;;;;;;3.58;2.88;;;18.10;96.20;;;;;;5113453;28;20052;-65
2023/08/12 03:42:35;;;;;;;6.18;3.30;;;18.00;96.20;;;;;;5113101;28;20052;-67
2023/08/12 03:45:01;;;;;;;4.80;3.42;;;18.00;96.20;;;;;;5113481;28;20020;-66
2023/08/12 03:47:27;;;;;;;5.00;3.00;;;18.00;96.40;;;;;;5113293;28;20039;-70
2023/08/12 03:49:52;;;;;;;9.50;3.83;;;18.00;96.50;;;;;;5113241;28;20061;-67
2023/08/12 03:52:18;;;;;;;3.97;3.20;;;18.00;96.60;;;;;;5113638;28;20361;-66
2023/08/12 03:54:44;;;;;;;8.93;3.40;;;18.00;97.40;;;;;;5113114;28;20023;-66
2023/08/12 03:57:10;;;;;;;4.10;3.20;;;17.90;97.10;;;;;;5113532;28;20065;-66
2023/08/12 03:59:36;;;;;;;5.80;3.78;;;17.90;97.20;;;;;;5112838;28;20043;-67
2023/08/12 04:02:02;;;;;;;6.57;3.72;;;17.80;97.30;;;;;;5112783;28;20521;-66
2023/08/12 04:04:28;;;;;;;5.05;3.47;;;17.80;97.50;;;;;;5113236;28;20030;-73
2023/08/12 04:06:53;;;;;;;4.90;3.35;;;17.80;97.80;;;;;;5113125;28;20399;-65
2023/08/12 04:09:19;;;;;;;5.82;3.65;;;17.80;98.20;;;;;;5113677;28;20020;-65
2023/08/12 04:11:46;;;;;;;3.95;3.50;;;17.80;98.20;;;;;;5112646;28;20138;-66
2023/08/12 04:14:12;;;;;;;8.05;3.97;;;17.80;98.00;;;;;;5113285;28;20028;-65
2023/08/12 04:16:39;;;;;;;6.38;3.92;;;17.90;98.00;;;;;;5112596;28;20059;-67
2023/08/12 04:19:04;;;;;;;7.35;3.78;;;17.90;97.90;;;;;;5113030;28;20034;-67
2023/08/12 04:21:30;;;;;;;7.60;4.07;;;17.80;98.20;;;;;;5094620;28;20023;-68
2023/08/12 04:23:55;;;;;;;5.72;3.42;;;17.90;98.20;;;;;;5113668;28;20089;-67
2023/08/12 04:26:21;;;;;;;5.28;3.50;;;17.90;98.30;;;;;;5127278;28;20110;-67
2023/08/12 04:28:47;;;;;;;5.75;3.50;;;17.90;98.10;;;;;;5133380;28;20474;-67
2023/08/12 04:31:12;;;;;;;7.40;3.72;;;17.90;98.00;;;;;;5133409;28;20115;-67
2023/08/12 04:33:38;;;;;;;8.13;3.78;;;17.90;98.10;;;;;;5133308;28;20076;-67
2023/08/12 04:36:04;;;;;;;5.45;3.78;;;17.90;98.20;;;;;;5133630;28;20027;-68
2023/08/12 04:38:31;;;;;;;6.18;3.58;;;18.00;98.10;;;;;;5133467;28;20114;-67
2023/08/12 04:40:56;;;;;;;5.72;3.80;;;18.00;97.80;;;;;;5133645;28;20048;-66
2023/08/12 04:43:22;;;;;;;9.98;3.90;;;18.10;97.70;;;;;;5133641;28;20073;-67
2023/08/12 04:45:48;;;;;;;6.57;3.60;;;18.20;97.40;;;;;;5132935;28;20019;-67
2023/08/12 04:48:14;;;;;;;6.97;3.67;;;18.30;97.30;;;;;;5133475;28;20114;-67
2023/08/12 04:50:41;;;;;;;4.38;3.00;;;18.40;97.00;;;;;;5132632;28;20075;-67
2023/08/12 04:53:07;;;;;;;5.28;3.20;;;18.50;96.40;;;;;;5133027;28;20023;-67
2023/08/12 04:55:34;;;;;;;5.07;3.33;;;18.60;96.10;;;;;;5114739;28;20413;-68
2023/08/12 04:58:00;;;;;;;4.97;3.00;;;18.70;95.90;;;;;;5133173;28;20034;-67
2023/08/12 05:00:26;;;;;;;4.28;3.13;;;18.90;95.60;;;;;;5133458;28;20096;-67
2023/08/12 05:02:52;;;;;;;5.82;3.53;;;18.90;94.60;;;;;;5132965;28;20077;-67
2023/08/12 05:05:17;;;;;;;3.30;2.83;;;19.00;94.40;;;;;;5133173;28;20075;-67
2023/08/12 05:07:44;;;;;;;7.78;3.40;;;19.10;94.40;;;;;;5114647;28;20039;-67
2023/08/12 05:10:10;;;;;;;5.10;3.60;;;19.20;93.70;;;;;;5133416;28;20031;-67
2023/08/12 05:12:35;;;;;;;5.88;3.30;;;19.20;93.60;;;;;;5133859;27;20027;-67
2023/08/12 05:15:01;;;;;;;5.00;2.97;;;19.20;93.70;;;;;;5136863;27;20027;-67
2023/08/12 05:17:27;;;;;;;7.18;3.50;;;19.20;93.40;;;;;;5122565;27;20116;-67
2023/08/12 05:19:52;;;;;;;4.72;3.35;;;19.30;93.00;;;;;;5115894;28;20357;-67
2023/08/12 05:22:18;;;;;;;4.45;3.60;;;19.40;93.00;;;;;;5116423;28;20107;-67
2023/08/12 05:24:43;;;;;;;8.77;3.13;;;19.50;93.00;;;;;;5115977;28;20023;-67
2023/08/12 05:27:09;;;;;;;7.32;3.90;;;19.50;92.80;;;;;;5116421;28;20028;-67
2023/08/12 05:29:34;;;;;;;6.53;3.35;;;19.60;92.50;;;;;;5115988;28;20522;-68
2023/08/12 05:32:00;;;;;;;5.50;3.55;;;19.70;91.70;;;;;;5116274;28;20024;-67
2023/08/12 05:34:27;;;;;;;4.38;3.28;;;19.80;91.70;;;;;;5116480;28;20024;-66
2023/08/12 05:36:52;;;;;;;6.50;3.38;;;20.00;91.40;;;;;;5115731;28;20072;-65
2023/08/12 05:39:18;;;;;;;5.38;4.18;;;20.10;91.20;;;;;;5116134;28;20031;-65
2023/08/12 05:41:44;;;;;;;8.60;3.83;;;20.40;90.60;;;;;;5116094;28;20030;-66
2023/08/12 05:44:10;;;;;;;5.32;3.78;;;20.60;90.00;;;;;;5115622;28;20533;-66
2023/08/12 05:46:36;;;;;;;7.13;4.18;;;20.90;88.20;;;;;;5115280;28;20036;-69
2023/08/12 05:49:01;;;;;;;6.80;4.47;;;21.30;87.60;;;;;;5115850;28;20047;-66
2023/08/12 05:51:27;;;;;;;5.70;4.20;;;21.70;86.30;;;;;;5115569;28;20031;-66
2023/08/12 05:53:52;;;;;;;5.78;4.03;;;22.20;84.30;;;;;;5115100;28;20031;-66
2023/08/12 05:56:18;;;;;;;6.70;5.03;;;22.90;82.30;;;;;;5115456;28;20026;-66
2023/08/12 05:58:44;;;;;;;7.68;4.60;;;23.70;79.30;;;;;;5115425;28;20022;-66
2023/08/12 06:01:10;;;;;;;8.93;4.47;;;24.80;75.20;;;;;;5115404;28;20031;-65
2023/08/12 06:03:35;;;;;;;8.00;4.57;;;25.70;69.70;;;;;;5115330;28;20027;-66
2023/08/12 06:06:01;;;;;;;6.25;4.43;;;26.40;65.60;;;;;;5115187;28;20024;-66
2023/08/12 06:08:26;;;;;;;8.30;4.40;;;27.10;63.20;;;;;;5115674;28;20122;-65
2023/08/12 06:10:52;;;;;;;6.93;3.72;;;27.70;60.80;;;;;;5115456;28;20034;-67
2023/08/12 06:13:18;;;;;;;10.98;4.43;;;28.40;59.10;;;;;;5115451;28;20410;-66
2023/08/12 06:15:43;;;;;;;4.90;3.88;;;28.90;58.00;;;;;;5115359;28;20429;-67
2023/08/12 06:18:09;;;;;;;8.40;4.40;;;29.30;55.10;;;;;;5115355;28;20027;-67
2023/08/12 06:20:34;;;;;;;7.35;4.22;;;29.70;54.40;;;;;;5114925;28;20031;-66
2023/08/12 06:23:01;;;;;;;5.65;4.32;;;30.10;52.90;;;;;;5114577;28;20104;-67
2023/08/12 06:25:26;;;;;;;6.55;4.32;;;30.20;52.40;;;;;;5114489;28;20092;-68
2023/08/12 06:27:52;;;;;;;6.85;4.30;;;30.00;51.70;;;;;;5124346;27;20402;-67
2023/08/12 06:30:17;;;;;;;4.78;3.88;;;29.80;52.00;;;;;;5135769;27;20019;-67
2023/08/12 06:32:43;;;;;;;6.63;4.70;;;29.70;52.40;;;;;;5135010;27;20027;-67
2023/08/12 06:35:09;;;;;;;7.07;3.47;;;29.40;52.20;;;;;;5135680;27;20027;-66
2023/08/12 06:37:35;;;;;;;4.90;4.22;;;29.50;53.30;;;;;;5135527;27;20031;-66
2023/08/12 06:40:00;;;;;;;5.63;4.18;;;29.70;52.70;;;;;;5135085;27;20019;-66
2023/08/12 06:42:26;;;;;;;4.18;3.78;;;30.10;52.70;;;;;;5135746;27;20030;-66
2023/08/12 06:44:56;;;;;;;6.60;3.60;;;30.40;51.20;;;;;;5134332;27;20019;-67
2023/08/12 06:47:21;;;;;;;7.05;3.70;;;30.60;50.10;;;;;;5135322;27;20028;-67
2023/08/12 06:49:47;;;;;;;4.65;3.30;;;31.00;49.50;;;;;;5134792;27;20053;-66
2023/08/12 06:52:13;;;;;;;5.88;3.42;;;31.70;49.20;;;;;;5135497;27;20053;-66
2023/08/12 06:54:38;;;;;;;6.50;4.07;;;32.10;48.20;;;;;;5135373;27;20031;-66
2023/08/12 06:57:04;;;;;;;6.35;3.30;;;32.70;48.00;;;;;;5134568;27;20494;-67
2023/08/12 06:59:29;;;;;;;4.97;3.03;;;33.10;46.30;;;;;;5135107;27;20051;-67
2023/08/12 07:01:55;;;;;;;4.65;3.03;;;33.50;46.10;;;;;;5116173;27;20034;-66
2023/08/12 07:04:21;;;;;;;3.97;2.80;;;33.50;45.30;;;;;;5135044;27;20023;-66
2023/08/12 07:06:46;;;;;;;4.85;2.83;;;33.80;44.80;;;;;;5134553;27;20490;-67
2023/08/12 07:09:12;;;;;;;3.65;2.60;;;34.00;44.00;;;;;;5134907;27;20104;-66
2023/08/12 07:11:38;;;;;;;3.65;2.60;;;34.40;43.40;;;;;;5134479;27;20027;-66
2023/08/12 07:14:04;;;;;;;5.00;2.53;;;35.00;42.60;;;;;;5116009;27;20382;-65
2023/08/12 07:16:30;;;;;;;6.60;2.70;;;35.20;41.40;;;;;;5130997;27;20023;-66
2023/08/12 07:18:55;;;;;;;2.83;2.35;;;34.90;41.40;;;;;;5134333;27;20023;-66
2023/08/12 07:21:21;;;;;;;2.85;2.13;;;35.20;41.90;;;;;;5134581;27;20079;-66
2023/08/12 07:23:46;;;;;;;5.32;2.72;;;35.80;41.40;;;;;;5134185;27;20025;-66
2023/08/12 07:26:12;;;;;;;2.40;2.10;;;36.50;40.30;;;;;;5134314;27;20044;-67
2023/08/12 07:28:38;;;;;;;5.28;2.35;;;37.10;39.60;;;;;;5134149;27;20083;-66
2023/08/12 07:31:03;;;;;;;4.90;2.58;;;37.20;38.80;;;;;;5133967;27;20035;-66
2023/08/12 07:33:29;;;;;;;2.55;2.00;;;37.90;37.50;;;;;;5134189;27;20110;-66
2023/08/12 07:35:54;;;;;;;2.55;2.00;;;37.90;36.60;;;;;;5134065;27;20023;-66
2023/08/12 07:38:20;;;;;;;3.55;2.30;;;38.20;36.70;;;;;;5134012;27;20046;-65
2023/08/12 07:40:46;;;;;;;3.25;2.40;;;38.50;36.50;;;;;;5133593;27;20059;-66
2023/08/12 07:43:11;;;;;;;3.28;2.10;;;38.50;36.00;;;;;;5134304;27;20031;-66
2023/08/12 07:45:37;;;;;;;2.42;1.95;;;38.70;35.40;;;;;;5133963;27;20039;-66
2023/08/12 07:48:03;;;;;;;3.92;2.33;;;38.80;35.60;;;;;;5133464;27;20031;-67
2023/08/12 07:50:29;;;;;;;3.67;2.17;;;38.50;35.80;;;;;;5133670;27;20047;-66
2023/08/12 07:52:55;;;;;;;2.28;1.92;;;38.50;35.70;;;;;;5133612;27;20076;-67
2023/08/12 07:55:20;;;;;;;7.25;1.83;;;38.50;35.50;;;;;;5134022;27;20023;-66
2023/08/12 07:57:46;;;;;;;4.00;2.10;;;38.70;35.20;;;;;;5133403;27;20366;-67
2023/08/12 08:00:12;;;;;;;7.43;2.50;;;38.50;35.00;;;;;;5133847;27;20019;-67
2023/08/12 08:02:38;;;;;;;3.08;2.00;;;38.10;36.00;;;;;;5133945;27;20444;-66
2023/08/12 08:05:05;;;;;;;3.67;2.00;;;38.40;35.30;;;;;;5133527;27;20023;-66
2023/08/12 08:07:30;;;;;;;2.88;1.95;;;38.50;34.60;;;;;;5133756;27;20076;-66
2023/08/12 08:09:56;;;;;;;3.33;2.05;;;38.40;34.50;;;;;;5133493;27;20023;-66
2023/08/12 08:12:22;;;;;;;2.83;1.85;;;38.00;35.00;;;;;;5133859;27;20030;-66
2023/08/12 08:14:47;;;;;;;2.22;2.03;;;38.40;35.90;;;;;;5133390;27;20102;-67
2023/08/12 08:17:13;;;;;;;3.22;1.70;;;38.60;34.70;;;;;;5133809;27;20038;-66
2023/08/12 08:19:38;;;;;;;2.55;1.85;;;38.70;35.30;;;;;;5133763;28;20048;-67
2023/08/12 08:22:04;;;;;;;2.30;1.90;;;38.90;34.90;;;;;;5133379;28;20109;-67
2023/08/12 08:24:30;;;;;;;3.13;2.13;;;38.80;35.10;;;;;;5133664;28;20119;-66
2023/08/12 08:26:56;;;;;;;2.40;2.00;;;38.50;35.00;;;;;;5133310;28;20031;-67
2023/08/12 08:29:22;;;;;;;3.53;1.85;;;38.40;35.10;;;;;;5133675;28;20031;-66
2023/08/12 08:31:48;;;;;;;5.45;2.38;;;38.20;35.10;;;;;;5133018;28;20019;-67
2023/08/12 08:34:15;;;;;;;2.42;1.80;;;37.60;34.80;;;;;;5133450;28;20102;-67
2023/08/12 08:36:40;;;;;;;3.65;2.13;;;36.80;36.70;;;;;;5133566;28;20031;-66
2023/08/12 08:39:06;;;;;;;3.72;1.90;;;36.60;36.60;;;;;;5132765;28;20023;-67
2023/08/12 08:41:34;;;;;;;4.40;2.00;;;36.00;36.90;;;;;;5133552;28;20410;-66
2023/08/12 08:44:04;;;;;;;2.97;1.77;;;35.70;37.30;;;;;;5133163;28;20037;-67
2023/08/12 08:46:30;;;;;;;3.13;2.10;;;35.30;37.90;;;;;;5132963;28;20472;-67
2023/08/12 08:48:59;;;;;;;2.45;2.00;;;34.90;39.00;;;;;;5136177;27;20092;-67
2023/08/12 08:51:25;;;;;;;4.70;2.05;;;34.90;39.30;;;;;;5137363;27;20023;-67
2023/08/12 08:53:54;;;;;;;2.85;2.38;;;34.80;40.10;;;;;;5137067;27;20028;-67
2023/08/12 08:56:21;;;;;;;3.47;2.38;;;34.40;39.00;;;;;;5137115;27;20019;-67
2023/08/12 08:58:47;;;;;;;2.80;2.15;;;34.20;39.40;;;;;;5137473;27;20155;-67
2023/08/12 09:01:13;;;;;;;3.92;2.53;;;33.80;40.30;;;;;;5136990;27;20030;-67
2023/08/12 09:03:40;;;;;;;2.80;2.08;;;33.50;40.70;;;;;;5137000;27;20030;-67
2023/08/12 09:06:07;;;;;;;4.28;2.45;;;33.30;41.90;;;;;;5136822;27;20098;-67
2023/08/12 09:08:33;;;;;;;3.13;2.33;;;33.00;42.40;;;;;;5136888;27;20031;-67
2023/08/12 09:11:00;;;;;;;5.38;2.20;;;32.90;43.60;;;;;;5136632;27;20068;-67
2023/08/12 09:13:26;;;;;;;3.78;2.22;;;32.80;43.40;;;;;;5133609;27;20051;-67
2023/08/12 09:15:51;;;;;;;5.45;2.67;;;32.40;43.70;;;;;;5136576;27;20476;-69
2023/08/12 09:18:17;;;;;;;7.32;2.40;;;32.20;44.20;;;;;;5136818;27;20042;-66
2023/08/12 09:20:43;;;;;;;4.10;2.40;;;32.00;44.60;;;;;;5137020;27;20051;-66
2023/08/12 09:23:10;;;;;;;3.28;2.08;;;32.00;44.10;;;;;;5136525;27;20031;-66
2023/08/12 09:25:44;;;;;;;2.60;1.92;;;32.00;45.60;;;;;;5136907;27;20027;-66
2023/08/12 09:28:11;;;;;;;3.88;2.10;;;31.80;45.10;;;;;;5136427;27;20039;-66
2023/08/12 09:30:37;;;;;;;3.10;2.30;;;31.60;45.30;;;;;;5118419;27;20023;-66
2023/08/12 09:33:07;;;;;;;2.30;2.10;;;31.40;45.80;;;;;;5136398;27;20031;-67
2023/08/12 09:35:38;;;;;;;5.13;2.20;;;31.30;45.90;;;;;;5137091;27;20019;-66
2023/08/12 09:38:04;;;;;;;;;;;31.20;46.60;;;;;;5136663;27;20039;-65
2023/08/12 09:40:32;;;;;;;7.97;2.28;;;31.10;46.60;;;;;;5136659;27;19986;-65
2023/08/12 09:42:58;;;;;;;2.67;1.75;;;30.90;46.90;;;;;;5136171;27;20039;-65
2023/08/12 09:45:25;;;;;;;3.85;2.03;;;30.80;47.00;;;;;;5136564;27;20031;-66
2023/08/12 09:47:51;;;;;;;4.07;1.73;;;30.70;47.60;;;;;;5136544;27;20110;-65
2023/08/12 09:50:16;;;;;;;2.40;2.15;;;30.50;47.90;;;;;;5135552;27;20477;-66
2023/08/12 09:52:43;;;;;;;7.32;2.05;;;30.40;48.60;;;;;;5136065;27;20103;-65
2023/08/12 09:55:10;;;;;;;3.20;1.92;;;30.40;48.90;;;;;;5135675;27;20076;-66
2023/08/12 09:57:42;;;;;;;4.10;2.03;;;30.40;48.80;;;;;;5135947;27;20054;-66
2023/08/12 10:00:13;;;;;;;3.10;2.25;;;30.30;49.20;;;;;;5134479;27;20015;-66
2023/08/12 10:02:41;;;;;;;3.47;2.03;;;30.30;48.70;;;;;;5136470;27;20034;-67
2023/08/12 10:05:11;;;;;;;3.17;2.20;;;30.20;49.20;;;;;;5135796;27;20019;-67
2023/08/12 10:07:37;;;;;;;3.73;1.97;;;30.10;49.30;;;;;;5136233;27;20031;-66
2023/08/12 10:10:05;;;;;;;3.42;2.10;;;30.00;49.80;;;;;;5135767;27;20485;-67
2023/08/12 10:12:31;;;;;;;3.90;2.10;;;30.00;49.80;;;;;;5136123;27;20023;-67
2023/08/12 10:14:58;;;;;;;3.50;2.28;;;29.90;50.00;;;;;;5135721;27;20080;-67
2023/08/12 10:17:24;;;;;;;2.28;1.90;;;30.00;50.30;;;;;;5135540;27;20041;-67
2023/08/12 10:19:55;;;;;;;2.95;2.08;;;30.10;50.10;;;;;;5136107;27;20023;-66
2023/08/12 10:22:21;;;;;;;2.15;1.73;;;30.10;49.80;;;;;;5136048;27;20027;-65
2023/08/12 10:24:49;;;;;;;3.65;1.75;;;30.20;49.10;;;;;;5135768;27;20042;-67
2023/08/12 10:27:17;;;;;;;4.53;1.73;;;30.10;50.20;;;;;;5135336;27;20039;-66
2023/08/12 10:29:43;;;;;;;2.22;2.03;;;30.20;50.10;;;;;;5135632;27;20056;-65
2023/08/12 10:32:09;;;;;;;1.75;1.63;;;30.20;49.90;;;;;;5135242;27;20113;-66
2023/08/12 10:34:35;;;;;;;2.42;1.60;;;30.20;48.40;;;;;;5135726;27;20466;-65
2023/08/12 10:37:03;;;;;;;4.72;1.70;;;30.20;48.80;;;;;;5135161;27;20096;-67
2023/08/12 10:39:32;;;;;;;2.33;1.77;;;30.20;47.90;;;;;;5135410;27;20033;-67
2023/08/12 10:41:58;;;;;;;4.30;1.63;;;30.20;48.30;;;;;;5135004;27;20055;-70
2023/08/12 10:44:39;;;;;;;4.50;1.75;;;30.20;47.20;;;;;;5135483;27;20056;-66
2023/08/12 10:47:10;;;;;;;3.53;2.30;;;30.20;47.90;;;;;;5134958;27;20038;-67
2023/08/12 10:49:58;;;;;;;4.13;1.50;;;30.20;48.30;;;;;;5134923;27;20054;-66
2023/08/12 10:52:28;;;;;;;1.60;1.50;;;30.10;47.90;;;;;;5134295;27;20039;-67
2023/08/12 10:54:54;;;;;;;3.05;1.92;;;30.10;48.10;;;;;;5134794;27;20498;-67
2023/08/12 10:57:38;;;;;;;5.10;2.50;;;30.00;48.00;;;;;;5134780;27;20077;-67
2023/08/12 11:00:04;;;;;;;1.70;1.52;;;30.00;48.80;;;;;;5134696;27;20425;-67
2023/08/12 11:02:32;;;;;;;2.47;1.70;;;30.00;48.80;;;;;;5135031;27;20027;-66
2023/08/12 11:05:03;;;;;;;1.80;1.58;;;29.90;48.90;;;;;;5135045;27;20028;-65
2023/08/12 11:07:33;;;;;;;3.08;1.48;;;29.90;48.90;;;;;;5134949;27;20030;-67
2023/08/12 11:10:04;;;;;;;2.25;1.55;;;29.80;49.20;;;;;;5134507;27;20020;-73
2023/08/12 11:12:32;;;;;;;3.20;1.70;;;29.90;49.10;;;;;;5132572;27;20027;-67
2023/08/12 11:15:02;;;;;;;5.60;1.45;;;29.90;47.60;;;;;;5134862;27;20031;-67
2023/08/12 11:17:33;;;;;;;4.80;1.60;;;29.90;47.20;;;;;;5134727;27;20024;-67
2023/08/12 11:20:00;;;;;;;3.08;1.65;;;29.90;48.30;;;;;;5134789;27;20027;-67
2023/08/12 11:22:25;;;;;;;3.55;1.52;;;29.90;47.90;;;;;;5134581;27;20435;-66
2023/08/12 11:24:52;;;;;;;2.70;1.50;;;29.90;47.80;;;;;;5134631;27;20102;-67
2023/08/12 11:27:18;;;;;;;2.47;1.65;;;29.90;48.70;;;;;;5134140;27;20046;-67
2023/08/12 11:29:44;;;;;;;3.35;1.75;;;29.90;47.80;;;;;;5134638;27;20023;-67
2023/08/12 11:32:10;;;;;;;5.90;1.58;;;29.90;48.50;;;;;;5134081;27;20084;-67
2023/08/12 11:34:36;;;;;;;4.32;1.60;;;29.90;49.30;;;;;;5134456;27;20042;-66
2023/08/12 11:37:03;;;;;;;2.40;1.77;;;30.00;49.60;;;;;;5133967;27;20031;-68
2023/08/12 11:39:29;;;;;;;2.63;1.90;;;30.00;50.00;;;;;;5133926;27;20031;-67
2023/08/12 11:41:55;;;;;;;2.28;1.77;;;30.00;50.00;;;;;;5134475;27;20031;-66
2023/08/12 11:44:22;;;;;;;3.05;1.60;;;30.10;49.70;;;;;;5133909;27;20444;-66
2023/08/12 11:46:49;;;;;;;3.72;1.65;;;30.10;48.30;;;;;;5134152;27;20066;-66
2023/08/12 11:49:14;;;;;;;2.22;1.50;;;30.20;49.10;;;;;;5133489;27;20059;-65
2023/08/12 11:51:42;;;;;;;1.58;1.45;;;30.20;49.30;;;;;;5133870;27;20031;-66
2023/08/12 11:54:09;;;;;;;2.50;1.75;;;30.20;49.20;;;;;;5115347;27;20132;-66
2023/08/12 11:56:34;;;;;;;2.00;1.33;;;30.20;49.40;;;;;;5133652;27;20375;-66
2023/08/12 11:59:00;;;;;;;2.55;1.20;;;30.10;47.00;;;;;;5133999;27;20023;-66
2023/08/12 12:01:28;;;;;;;4.10;1.63;;;30.10;47.70;;;;;;5133269;27;20031;-66
2023/08/12 12:03:54;;;;;;;3.28;1.50;;;30.10;48.30;;;;;;5133946;27;20035;-65
2023/08/12 12:06:33;;;;;;;1.95;1.30;;;30.10;47.60;;;;;;5133166;27;20056;-65
2023/08/12 12:09:18;;;;;;;3.60;1.45;;;30.10;48.20;;;;;;5133561;27;20572;-66
2023/08/12 12:11:44;;;;;;;2.15;1.38;;;29.90;47.40;;;;;;5133864;27;20035;-66
2023/08/12 12:14:10;;;;;;;2.30;1.35;;;29.80;47.30;;;;;;5133110;27;20023;-66
2023/08/12 12:16:43;;;;;;;1.98;1.33;;;29.80;48.10;;;;;;5133611;27;20046;-65
2023/08/12 12:19:20;;;;;;;1.48;1.10;;;29.60;48.20;;;;;;5133218;27;20375;-65
2023/08/12 12:21:48;;;;;;;2.10;1.40;;;29.60;48.40;;;;;;5133027;27;20020;-66
2023/08/12 12:24:14;;;;;;;1.48;1.30;;;29.50;48.40;;;;;;5132648;28;20372;-66
2023/08/12 12:26:41;;;;;;;6.88;1.50;;;29.40;47.90;;;;;;5133752;28;20027;-66
2023/08/12 12:29:07;;;;;;;2.28;1.45;;;29.30;48.30;;;;;;5133173;28;20023;-66
2023/08/12 12:31:34;;;;;;;1.60;1.50;;;29.30;48.80;;;;;;5133769;28;20035;-65
2023/08/12 12:34:01;;;;;;;3.28;1.58;;;29.10;48.40;;;;;;5133518;28;20023;-66
2023/08/12 12:36:27;;;;;;;5.60;1.17;;;29.10;47.40;;;;;;5132760;28;20045;-65
2023/08/12 12:38:52;;;;;;;2.58;1.38;;;29.00;48.10;;;;;;5133862;28;20019;-67
2023/08/12 12:41:18;;;;;;;1.75;1.05;;;29.00;47.40;;;;;;5133290;28;20371;-67
2023/08/12 12:43:44;;;;;;;2.97;1.40;;;28.90;47.50;;;;;;5133389;28;20494;-66
2023/08/12 12:46:10;;;;;;;2.65;1.35;;;28.80;47.00;;;;;;5132970;28;20030;-67